Emmons, Minnesota
Current Conditions -  °F | °C
As of 6:34 AM on Saturday 25 Oct 2014 (Local Time) from KAEL Reporting Station
Clear Clear  
Wind Chill: 46°   Ceiling: Unl
Heat Index: 48°   Visibility: 10mi
Dew Point: 41°   Wind: 6mph
Humidity: 76%   Direction: 290°WNW
Pressure: 30.02"   Gusts: NA
Location:  43.5°N, 93.49°W
Report Text: KAEL 251134Z AUTO 29005KT 10SM CLR 09/05 A3002 RMK AO2
Loading
Personal Weather Stations






























Interactive Weather Map
Tropical Storm Tracking
New forecast layout! Learn more

10-Day Weather Forecast

Advertisements
Track Severe Weather on mobile